Карточка аэропорта UUEE

Внимание!
Информация на этой странице в стадии наполнения.
Если вы не увидели какой-то информации, или заметили неточность - пожалуйста сообщите нам!
Спасибо!
Команда RU-STAFF
Название аэропортаШереметьево
Название аэропорта (англ.)Sheremetyevo
Превышение630 ft. (192 m.)
Координаты55°58.416', 37°24.75'
Высота перехода10000 ft
Эшелон переходаFL110
Коды ответчика1501-1537
Зона ОрВДМосква РПИ (UUWV)
Данные METARUUEE 241430Z 16006MPS 9999 BKN029 10/05 Q1003 R88/62D NOSIG
Проноз погоды (TAF)UUEE 241353Z 2415/2515 13005MPS 9000 BKN016 TX12/2512Z TN06/2502Z TEMPO 2509/2515 19006G11MPS
NOTAMshow/hide NOTAM
AWOS   TABLE

Информация о ВПП

ВПП Длина ВПП (м.) Покрытие Курс ВПП Частота ILS
06R3700Железобетон64109.1
24L3700Железобетон244110.5
06C3550Бетон64108.1
24C3550Бетон244111.3
06L3200Бетон64108.75
24R3200Бетон244109.35

Диспетчерские позиции

Позывной Наименование органа УВД Частота
UUEE_TWRШереметьево-Вышка118.700
UUEE_TWRШереметьево-Вышка131.500
UUEE_TWRШереметьево-Вышка119.300
UUEE_DELШереметьево-Деливери120.875
UUEE_DELШереметьево-Деливери128.600
UUEE_GNDШереметьево-Руление119.000
UUEE_GNDШереметьево-Руление121.800
UUEE_GNDШереметьево-Руление122.900
UUEE_R_APPШереметьево-Круг120.675
UUEE_R_APPШереметьево-Круг126.600
UUEE_R_APPШереметьево-Круг118.100
UUEE_R_APPШереметьево-Круг135.175
UUEE_R_APPШереметьево-Круг122.700



Спутниковое изображение